sensor_id;sensor_type;location;lat;lon;timestamp;P1;durP1;ratioP1;P2;durP2;ratioP2
71183;SDS011;58887;51.980;4.464;2023-03-01T00:01:39;340.82;;;340.82;;
71183;SDS011;58887;51.980;4.464;2023-03-01T00:04:05;364.31;;;364.31;;
71183;SDS011;58887;51.980;4.464;2023-03-01T00:06:35;343.43;;;343.43;;
71183;SDS011;58887;51.980;4.464;2023-03-01T00:09:02;319.93;;;319.93;;
71183;SDS011;58887;51.980;4.464;2023-03-01T00:11:33;333.06;;;333.06;;
71183;SDS011;58887;51.980;4.464;2023-03-01T00:14:00;338.88;;;338.88;;
71183;SDS011;58887;51.980;4.464;2023-03-01T00:16:39;417.60;;;417.60;;
71183;SDS011;58887;51.980;4.464;2023-03-01T00:19:13;412.25;;;412.25;;
71183;SDS011;58887;51.980;4.464;2023-03-01T00:21:40;352.43;;;352.43;;
71183;SDS011;58887;51.980;4.464;2023-03-01T00:24:06;325.17;;;325.17;;
71183;SDS011;58887;51.980;4.464;2023-03-01T00:26:36;361.42;;;361.42;;
71183;SDS011;58887;51.980;4.464;2023-03-01T00:29:10;320.51;;;320.51;;
71183;SDS011;58887;51.980;4.464;2023-03-01T00:31:40;308.92;;;308.92;;
71183;SDS011;58887;51.980;4.464;2023-03-01T00:34:08;288.23;;;288.23;;
71183;SDS011;58887;51.980;4.464;2023-03-01T00:36:42;342.17;;;342.17;;
71183;SDS011;58887;51.980;4.464;2023-03-01T00:39:25;345.66;;;345.66;;
71183;SDS011;58887;51.980;4.464;2023-03-01T00:41:51;345.77;;;345.77;;
71183;SDS011;58887;51.980;4.464;2023-03-01T00:44:24;368.95;;;368.95;;
71183;SDS011;58887;51.980;4.464;2023-03-01T00:46:54;375.45;;;375.45;;
71183;SDS011;58887;51.980;4.464;2023-03-01T00:49:20;431.46;;;431.46;;
71183;SDS011;58887;51.980;4.464;2023-03-01T00:51:46;427.41;;;427.41;;
71183;SDS011;58887;51.980;4.464;2023-03-01T00:54:16;456.58;;;456.58;;
71183;SDS011;58887;51.980;4.464;2023-03-01T00:56:47;422.30;;;422.30;;
71183;SDS011;58887;51.980;4.464;2023-03-01T01:01:41;550.40;;;550.40;;
71183;SDS011;58887;51.980;4.464;2023-03-01T01:04:10;563.25;;;563.25;;
71183;SDS011;58887;51.980;4.464;2023-03-01T01:06:40;617.44;;;617.44;;
71183;SDS011;58887;51.980;4.464;2023-03-01T01:09:11;673.26;;;673.26;;
71183;SDS011;58887;51.980;4.464;2023-03-01T01:14:19;694.55;;;694.55;;
71183;SDS011;58887;51.980;4.464;2023-03-01T01:16:47;719.03;;;719.03;;
71183;SDS011;58887;51.980;4.464;2023-03-01T01:19:15;718.37;;;718.37;;
71183;SDS011;58887;51.980;4.464;2023-03-01T01:21:41;751.44;;;751.44;;
71183;SDS011;58887;51.980;4.464;2023-03-01T01:26:37;764.32;;;764.32;;
71183;SDS011;58887;51.980;4.464;2023-03-01T01:29:03;811.97;;;811.97;;
71183;SDS011;58887;51.980;4.464;2023-03-01T01:31:33;822.21;;;822.21;;
71183;SDS011;58887;51.980;4.464;2023-03-01T01:34:02;815.04;;;815.04;;
71183;SDS011;58887;51.980;4.464;2023-03-01T01:39:02;794.17;;;794.17;;
71183;SDS011;58887;51.980;4.464;2023-03-01T01:41:30;777.12;;;777.12;;
71183;SDS011;58887;51.980;4.464;2023-03-01T01:46:49;800.36;;;800.36;;
71183;SDS011;58887;51.980;4.464;2023-03-01T01:49:54;819.65;;;819.65;;
71183;SDS011;58887;51.980;4.464;2023-03-01T01:52:34;844.71;;;844.71;;
71183;SDS011;58887;51.980;4.464;2023-03-01T01:55:07;808.34;;;808.34;;
71183;SDS011;58887;51.980;4.464;2023-03-01T01:57:38;726.62;;;726.62;;
71183;SDS011;58887;51.980;4.464;2023-03-01T02:00:15;802.42;;;802.42;;
71183;SDS011;58887;51.980;4.464;2023-03-01T02:02:45;814.58;;;814.58;;
71183;SDS011;58887;51.980;4.464;2023-03-01T02:07:55;770.95;;;770.95;;
71183;SDS011;58887;51.980;4.464;2023-03-01T02:10:23;815.99;;;815.99;;
71183;SDS011;58887;51.980;4.464;2023-03-01T02:12:51;795.88;;;795.88;;
71183;SDS011;58887;51.980;4.464;2023-03-01T02:15:18;818.81;;;818.81;;
71183;SDS011;58887;51.980;4.464;2023-03-01T02:17:44;844.98;;;844.98;;
71183;SDS011;58887;51.980;4.464;2023-03-01T02:20:23;886.84;;;886.84;;
71183;SDS011;58887;51.980;4.464;2023-03-01T02:22:58;890.31;;;890.31;;
71183;SDS011;58887;51.980;4.464;2023-03-01T02:30:30;823.64;;;823.64;;
71183;SDS011;58887;51.980;4.464;2023-03-01T02:33:00;836.34;;;836.34;;
71183;SDS011;58887;51.980;4.464;2023-03-01T02:35:30;853.93;;;853.93;;
71183;SDS011;58887;51.980;4.464;2023-03-01T02:38:02;833.80;;;833.80;;
71183;SDS011;58887;51.980;4.464;2023-03-01T02:40:33;736.28;;;736.28;;
71183;SDS011;58887;51.980;4.464;2023-03-01T02:43:01;675.88;;;675.88;;
71183;SDS011;58887;51.980;4.464;2023-03-01T02:45:31;620.27;;;620.27;;
71183;SDS011;58887;51.980;4.464;2023-03-01T02:47:57;576.00;;;576.00;;
71183;SDS011;58887;51.980;4.464;2023-03-01T02:53:01;504.00;;;504.00;;
71183;SDS011;58887;51.980;4.464;2023-03-01T02:55:42;418.43;;;418.43;;
71183;SDS011;58887;51.980;4.464;2023-03-01T02:58:09;396.38;;;396.38;;
71183;SDS011;58887;51.980;4.464;2023-03-01T03:00:37;474.18;;;474.18;;
71183;SDS011;58887;51.980;4.464;2023-03-01T03:03:13;477.26;;;477.26;;
71183;SDS011;58887;51.980;4.464;2023-03-01T03:05:41;450.27;;;450.27;;
71183;SDS011;58887;51.980;4.464;2023-03-01T03:08:08;371.77;;;371.77;;
71183;SDS011;58887;51.980;4.464;2023-03-01T03:10:35;418.59;;;418.59;;
71183;SDS011;58887;51.980;4.464;2023-03-01T03:13:07;503.40;;;503.40;;
71183;SDS011;58887;51.980;4.464;2023-03-01T03:15:35;553.33;;;553.33;;
71183;SDS011;58887;51.980;4.464;2023-03-01T03:18:03;566.53;;;566.53;;
71183;SDS011;58887;51.980;4.464;2023-03-01T03:20:31;505.31;;;505.31;;
71183;SDS011;58887;51.980;4.464;2023-03-01T03:22:57;518.87;;;518.87;;
71183;SDS011;58887;51.980;4.464;2023-03-01T03:25:27;608.00;;;608.00;;
71183;SDS011;58887;51.980;4.464;2023-03-01T03:27:54;625.46;;;625.46;;
71183;SDS011;58887;51.980;4.464;2023-03-01T03:30:28;609.50;;;609.50;;
71183;SDS011;58887;51.980;4.464;2023-03-01T03:32:56;509.78;;;509.78;;
71183;SDS011;58887;51.980;4.464;2023-03-01T03:35:24;495.27;;;495.27;;
71183;SDS011;58887;51.980;4.464;2023-03-01T03:37:53;482.67;;;482.67;;
71183;SDS011;58887;51.980;4.464;2023-03-01T03:40:36;372.33;;;372.33;;
71183;SDS011;58887;51.980;4.464;2023-03-01T03:43:06;301.34;;;301.34;;
71183;SDS011;58887;51.980;4.464;2023-03-01T03:45:34;313.47;;;313.47;;
71183;SDS011;58887;51.980;4.464;2023-03-01T03:48:02;271.79;;;271.79;;
71183;SDS011;58887;51.980;4.464;2023-03-01T03:50:30;116.51;;;116.51;;
71183;SDS011;58887;51.980;4.464;2023-03-01T03:53:03;97.07;;;97.07;;
71183;SDS011;58887;51.980;4.464;2023-03-01T03:55:31;111.81;;;111.81;;
71183;SDS011;58887;51.980;4.464;2023-03-01T03:58:00;87.31;;;87.31;;
71183;SDS011;58887;51.980;4.464;2023-03-01T04:00:32;74.82;;;74.82;;
71183;SDS011;58887;51.980;4.464;2023-03-01T04:03:00;51.70;;;51.70;;
71183;SDS011;58887;51.980;4.464;2023-03-01T04:05:26;37.51;;;37.51;;
71183;SDS011;58887;51.980;4.464;2023-03-01T04:07:52;18.22;;;18.22;;
71183;SDS011;58887;51.980;4.464;2023-03-01T04:10:31;18.81;;;18.81;;
71183;SDS011;58887;51.980;4.464;2023-03-01T04:13:19;22.36;;;22.36;;
71183;SDS011;58887;51.980;4.464;2023-03-01T04:15:48;20.10;;;20.10;;
71183;SDS011;58887;51.980;4.464;2023-03-01T04:18:17;17.22;;;17.22;;
71183;SDS011;58887;51.980;4.464;2023-03-01T04:20:46;17.93;;;17.93;;
71183;SDS011;58887;51.980;4.464;2023-03-01T04:23:13;20.10;;;20.10;;
71183;SDS011;58887;51.980;4.464;2023-03-01T04:25:48;31.92;;;31.92;;
71183;SDS011;58887;51.980;4.464;2023-03-01T04:28:25;44.66;;;44.66;;
71183;SDS011;58887;51.980;4.464;2023-03-01T04:30:54;33.91;;;33.91;;
71183;SDS011;58887;51.980;4.464;2023-03-01T04:33:21;49.32;;;49.32;;
71183;SDS011;58887;51.980;4.464;2023-03-01T04:35:48;92.93;;;92.93;;
71183;SDS011;58887;51.980;4.464;2023-03-01T04:38:17;207.99;;;207.99;;
71183;SDS011;58887;51.980;4.464;2023-03-01T04:40:43;276.75;;;276.75;;
71183;SDS011;58887;51.980;4.464;2023-03-01T04:43:11;338.32;;;338.32;;
71183;SDS011;58887;51.980;4.464;2023-03-01T04:45:39;473.28;;;473.28;;
71183;SDS011;58887;51.980;4.464;2023-03-01T04:48:06;516.46;;;516.46;;
71183;SDS011;58887;51.980;4.464;2023-03-01T04:50:32;494.28;;;494.28;;
71183;SDS011;58887;51.980;4.464;2023-03-01T04:52:58;509.86;;;509.86;;
71183;SDS011;58887;51.980;4.464;2023-03-01T04:55:24;609.90;;;609.90;;
71183;SDS011;58887;51.980;4.464;2023-03-01T04:57:51;671.53;;;671.53;;
71183;SDS011;58887;51.980;4.464;2023-03-01T05:00:20;709.38;;;709.38;;
71183;SDS011;58887;51.980;4.464;2023-03-01T05:02:53;712.32;;;712.32;;
71183;SDS011;58887;51.980;4.464;2023-03-01T05:10:50;756.34;;;756.34;;
71183;SDS011;58887;51.980;4.464;2023-03-01T05:13:23;772.06;;;772.06;;
71183;SDS011;58887;51.980;4.464;2023-03-01T05:15:55;779.39;;;779.39;;
71183;SDS011;58887;51.980;4.464;2023-03-01T05:20:56;735.97;;;735.97;;
71183;SDS011;58887;51.980;4.464;2023-03-01T05:23:34;727.58;;;727.58;;
71183;SDS011;58887;51.980;4.464;2023-03-01T05:26:01;713.80;;;713.80;;
71183;SDS011;58887;51.980;4.464;2023-03-01T05:28:29;694.40;;;694.40;;
71183;SDS011;58887;51.980;4.464;2023-03-01T05:30:56;670.50;;;670.50;;
71183;SDS011;58887;51.980;4.464;2023-03-01T05:33:22;627.72;;;627.72;;
71183;SDS011;58887;51.980;4.464;2023-03-01T05:35:49;597.39;;;597.39;;
71183;SDS011;58887;51.980;4.464;2023-03-01T05:38:22;613.33;;;613.33;;
71183;SDS011;58887;51.980;4.464;2023-03-01T05:40:59;605.99;;;605.99;;
71183;SDS011;58887;51.980;4.464;2023-03-01T05:43:25;587.60;;;587.60;;
71183;SDS011;58887;51.980;4.464;2023-03-01T05:45:54;551.43;;;551.43;;
71183;SDS011;58887;51.980;4.464;2023-03-01T05:48:23;528.84;;;528.84;;
71183;SDS011;58887;51.980;4.464;2023-03-01T05:50:48;553.37;;;553.37;;
71183;SDS011;58887;51.980;4.464;2023-03-01T05:53:15;529.22;;;529.22;;
71183;SDS011;58887;51.980;4.464;2023-03-01T05:55:44;399.69;;;399.69;;
71183;SDS011;58887;51.980;4.464;2023-03-01T05:58:18;372.40;;;372.40;;
71183;SDS011;58887;51.980;4.464;2023-03-01T06:00:45;323.66;;;323.66;;
71183;SDS011;58887;51.980;4.464;2023-03-01T06:03:15;312.11;;;312.11;;
71183;SDS011;58887;51.980;4.464;2023-03-01T06:05:42;273.72;;;273.72;;
71183;SDS011;58887;51.980;4.464;2023-03-01T06:08:09;139.51;;;139.51;;
71183;SDS011;58887;51.980;4.464;2023-03-01T06:10:36;102.63;;;102.63;;
71183;SDS011;58887;51.980;4.464;2023-03-01T06:13:02;108.91;;;108.91;;
71183;SDS011;58887;51.980;4.464;2023-03-01T06:15:29;47.13;;;47.13;;
71183;SDS011;58887;51.980;4.464;2023-03-01T06:17:55;33.56;;;33.56;;
71183;SDS011;58887;51.980;4.464;2023-03-01T06:20:25;19.16;;;19.16;;
71183;SDS011;58887;51.980;4.464;2023-03-01T06:22:52;15.76;;;15.76;;
71183;SDS011;58887;51.980;4.464;2023-03-01T06:25:26;16.02;;;16.02;;
71183;SDS011;58887;51.980;4.464;2023-03-01T06:27:52;434.86;;;434.86;;
71183;SDS011;58887;51.980;4.464;2023-03-01T06:30:18;15.05;;;15.03;;
71183;SDS011;58887;51.980;4.464;2023-03-01T06:32:45;15.43;;;15.30;;
71183;SDS011;58887;51.980;4.464;2023-03-01T06:35:11;15.44;;;15.26;;
71183;SDS011;58887;51.980;4.464;2023-03-01T06:37:40;15.62;;;15.52;;
71183;SDS011;58887;51.980;4.464;2023-03-01T06:42:39;472.21;;;472.21;;
71183;SDS011;58887;51.980;4.464;2023-03-01T06:45:08;21.78;;;21.78;;
71183;SDS011;58887;51.980;4.464;2023-03-01T06:47:34;73.79;;;73.79;;
71183;SDS011;58887;51.980;4.464;2023-03-01T06:50:00;111.48;;;111.48;;
71183;SDS011;58887;51.980;4.464;2023-03-01T06:52:27;475.21;;;475.21;;
71183;SDS011;58887;51.980;4.464;2023-03-01T06:54:52;20.20;;;20.20;;
71183;SDS011;58887;51.980;4.464;2023-03-01T06:57:19;23.13;;;23.13;;
71183;SDS011;58887;51.980;4.464;2023-03-01T06:59:46;18.04;;;18.04;;
71183;SDS011;58887;51.980;4.464;2023-03-01T07:02:13;14.87;;;14.87;;
71183;SDS011;58887;51.980;4.464;2023-03-01T07:04:50;77.45;;;77.45;;
71183;SDS011;58887;51.980;4.464;2023-03-01T07:07:19;448.91;;;448.91;;
71183;SDS011;58887;51.980;4.464;2023-03-01T07:09:45;354.72;;;354.72;;
71183;SDS011;58887;51.980;4.464;2023-03-01T07:12:11;55.28;;;55.28;;
71183;SDS011;58887;51.980;4.464;2023-03-01T07:14:37;16.95;;;16.95;;
71183;SDS011;58887;51.980;4.464;2023-03-01T07:17:03;22.84;;;22.84;;
71183;SDS011;58887;51.980;4.464;2023-03-01T07:19:29;38.49;;;38.49;;
71183;SDS011;58887;51.980;4.464;2023-03-01T07:21:54;94.99;;;94.99;;
71183;SDS011;58887;51.980;4.464;2023-03-01T07:24:23;349.23;;;345.24;;
71183;SDS011;58887;51.980;4.464;2023-03-01T07:26:49;475.31;;;475.31;;
71183;SDS011;58887;51.980;4.464;2023-03-01T07:29:15;661.44;;;661.44;;
71183;SDS011;58887;51.980;4.464;2023-03-01T07:31:41;769.18;;;769.14;;
71183;SDS011;58887;51.980;4.464;2023-03-01T07:34:07;813.40;;;813.37;;
71183;SDS011;58887;51.980;4.464;2023-03-01T07:36:36;824.14;;;824.14;;
71183;SDS011;58887;51.980;4.464;2023-03-01T07:39:02;879.33;;;879.33;;
71183;SDS011;58887;51.980;4.464;2023-03-01T07:41:30;891.69;;;891.69;;
71183;SDS011;58887;51.980;4.464;2023-03-01T07:44:03;902.79;;;902.79;;
71183;SDS011;58887;51.980;4.464;2023-03-01T07:46:30;899.30;;;899.30;;
71183;SDS011;58887;51.980;4.464;2023-03-01T07:48:58;816.50;;;816.50;;
71183;SDS011;58887;51.980;4.464;2023-03-01T07:51:27;659.00;;;659.00;;
71183;SDS011;58887;51.980;4.464;2023-03-01T07:59:06;42.04;;;42.04;;
71183;SDS011;58887;51.980;4.464;2023-03-01T08:04:24;18.87;;;18.87;;
71183;SDS011;58887;51.980;4.464;2023-03-01T08:06:52;38.91;;;38.91;;
71183;SDS011;58887;51.980;4.464;2023-03-01T08:09:19;112.12;;;112.12;;
71183;SDS011;58887;51.980;4.464;2023-03-01T08:11:44;132.97;;;132.97;;
71183;SDS011;58887;51.980;4.464;2023-03-01T08:14:11;102.24;;;102.24;;
71183;SDS011;58887;51.980;4.464;2023-03-01T08:16:37;144.80;;;144.80;;
71183;SDS011;58887;51.980;4.464;2023-03-01T08:19:03;235.49;;;235.49;;
71183;SDS011;58887;51.980;4.464;2023-03-01T08:21:33;95.74;;;95.74;;
71183;SDS011;58887;51.980;4.464;2023-03-01T08:24:02;13.92;;;13.92;;
71183;SDS011;58887;51.980;4.464;2023-03-01T08:26:29;12.39;;;12.39;;
71183;SDS011;58887;51.980;4.464;2023-03-01T08:28:55;14.60;;;14.60;;
71183;SDS011;58887;51.980;4.464;2023-03-01T08:31:26;15.99;;;15.99;;
71183;SDS011;58887;51.980;4.464;2023-03-01T08:33:56;11.78;;;11.78;;
71183;SDS011;58887;51.980;4.464;2023-03-01T08:36:25;11.39;;;11.39;;
71183;SDS011;58887;51.980;4.464;2023-03-01T08:38:54;11.05;;;11.05;;
71183;SDS011;58887;51.980;4.464;2023-03-01T08:41:20;10.87;;;10.87;;
71183;SDS011;58887;51.980;4.464;2023-03-01T08:43:46;10.75;;;10.75;;
71183;SDS011;58887;51.980;4.464;2023-03-01T08:46:12;10.73;;;10.73;;
71183;SDS011;58887;51.980;4.464;2023-03-01T08:48:38;11.23;;;11.23;;
71183;SDS011;58887;51.980;4.464;2023-03-01T08:51:10;16.56;;;16.56;;
71183;SDS011;58887;51.980;4.464;2023-03-01T08:53:41;11.86;;;11.86;;
71183;SDS011;58887;51.980;4.464;2023-03-01T08:56:07;11.82;;;11.82;;
71183;SDS011;58887;51.980;4.464;2023-03-01T08:58:34;16.65;;;16.65;;
71183;SDS011;58887;51.980;4.464;2023-03-01T09:01:00;22.38;;;22.38;;
71183;SDS011;58887;51.980;4.464;2023-03-01T09:03:31;13.55;;;13.55;;
71183;SDS011;58887;51.980;4.464;2023-03-01T09:05:59;13.04;;;13.04;;
71183;SDS011;58887;51.980;4.464;2023-03-01T09:08:26;8.62;;;8.62;;
71183;SDS011;58887;51.980;4.464;2023-03-01T09:10:52;8.16;;;8.16;;
71183;SDS011;58887;51.980;4.464;2023-03-01T09:13:17;7.95;;;7.95;;
71183;SDS011;58887;51.980;4.464;2023-03-01T09:15:43;8.33;;;8.33;;
71183;SDS011;58887;51.980;4.464;2023-03-01T09:18:09;7.64;;;7.64;;
71183;SDS011;58887;51.980;4.464;2023-03-01T09:20:35;7.81;;;7.81;;
71183;SDS011;58887;51.980;4.464;2023-03-01T09:23:01;7.66;;;7.66;;
71183;SDS011;58887;51.980;4.464;2023-03-01T09:25:27;6.84;;;6.84;;
71183;SDS011;58887;51.980;4.464;2023-03-01T09:27:53;11.63;;;11.63;;
71183;SDS011;58887;51.980;4.464;2023-03-01T09:30:21;11.28;;;11.28;;
71183;SDS011;58887;51.980;4.464;2023-03-01T09:32:46;15.20;;;15.20;;
71183;SDS011;58887;51.980;4.464;2023-03-01T09:35:12;15.68;;;15.68;;
71183;SDS011;58887;51.980;4.464;2023-03-01T09:37:38;8.54;;;8.54;;
71183;SDS011;58887;51.980;4.464;2023-03-01T09:40:13;7.12;;;7.12;;
71183;SDS011;58887;51.980;4.464;2023-03-01T09:45:33;6.89;;;6.87;;
71183;SDS011;58887;51.980;4.464;2023-03-01T09:48:03;6.73;;;6.73;;
71183;SDS011;58887;51.980;4.464;2023-03-01T09:50:34;6.44;;;6.44;;
71183;SDS011;58887;51.980;4.464;2023-03-01T09:53:05;6.14;;;6.14;;
71183;SDS011;58887;51.980;4.464;2023-03-01T09:55:50;6.56;;;6.56;;
71183;SDS011;58887;51.980;4.464;2023-03-01T10:01:30;6.02;;;6.02;;
71183;SDS011;58887;51.980;4.464;2023-03-01T10:09:36;5.87;;;5.87;;
71183;SDS011;58887;51.980;4.464;2023-03-01T10:12:15;5.43;;;5.43;;
71183;SDS011;58887;51.980;4.464;2023-03-01T10:17:50;5.59;;;5.59;;
71183;SDS011;58887;51.980;4.464;2023-03-01T10:20:24;5.68;;;5.68;;
71183;SDS011;58887;51.980;4.464;2023-03-01T10:22:57;5.27;;;5.27;;
71183;SDS011;58887;51.980;4.464;2023-03-01T10:25:36;4.47;;;4.47;;
71183;SDS011;58887;51.980;4.464;2023-03-01T10:34:13;4.36;;;4.36;;
71183;SDS011;58887;51.980;4.464;2023-03-01T10:36:47;5.61;;;5.61;;
71183;SDS011;58887;51.980;4.464;2023-03-01T10:39:20;5.04;;;5.04;;
71183;SDS011;58887;51.980;4.464;2023-03-01T10:41:52;9.16;;;9.16;;
71183;SDS011;58887;51.980;4.464;2023-03-01T10:47:23;3.86;;;3.86;;
71183;SDS011;58887;51.980;4.464;2023-03-01T10:49:53;4.36;;;4.36;;
71183;SDS011;58887;51.980;4.464;2023-03-01T10:52:21;4.67;;;4.67;;
71183;SDS011;58887;51.980;4.464;2023-03-01T10:54:53;5.28;;;5.28;;
71183;SDS011;58887;51.980;4.464;2023-03-01T10:57:34;5.52;;;5.52;;
71183;SDS011;58887;51.980;4.464;2023-03-01T11:00:16;4.89;;;4.89;;
71183;SDS011;58887;51.980;4.464;2023-03-01T11:03:23;4.63;;;4.63;;
71183;SDS011;58887;51.980;4.464;2023-03-01T11:05:58;5.02;;;5.02;;
71183;SDS011;58887;51.980;4.464;2023-03-01T11:08:45;5.79;;;5.79;;
71183;SDS011;58887;51.980;4.464;2023-03-01T11:14:07;6.19;;;6.19;;
71183;SDS011;58887;51.980;4.464;2023-03-01T11:16:41;5.94;;;5.94;;
71183;SDS011;58887;51.980;4.464;2023-03-01T11:21:47;5.17;;;5.17;;
71183;SDS011;58887;51.980;4.464;2023-03-01T11:24:17;5.15;;;5.15;;
71183;SDS011;58887;51.980;4.464;2023-03-01T11:26:47;5.94;;;5.94;;
71183;SDS011;58887;51.980;4.464;2023-03-01T11:31:54;6.14;;;6.13;;
71183;SDS011;58887;51.980;4.464;2023-03-01T11:37:03;7.14;;;7.14;;
71183;SDS011;58887;51.980;4.464;2023-03-01T11:45:10;6.40;;;6.40;;
71183;SDS011;58887;51.980;4.464;2023-03-01T12:01:26;6.05;;;6.05;;
71183;SDS011;58887;51.980;4.464;2023-03-01T12:15:39;6.51;;;6.51;;
71183;SDS011;58887;51.980;4.464;2023-03-01T12:18:34;6.40;;;6.40;;
71183;SDS011;58887;51.980;4.464;2023-03-01T12:24:16;6.43;;;6.43;;
71183;SDS011;58887;51.980;4.464;2023-03-01T12:30:05;6.81;;;6.81;;
71183;SDS011;58887;51.980;4.464;2023-03-01T12:35:59;6.75;;;6.73;;
71183;SDS011;58887;51.980;4.464;2023-03-01T12:38:50;7.14;;;7.14;;
71183;SDS011;58887;51.980;4.464;2023-03-01T12:46:49;6.52;;;6.52;;
71183;SDS011;58887;51.980;4.464;2023-03-01T12:49:31;6.71;;;6.71;;
71183;SDS011;58887;51.980;4.464;2023-03-01T12:54:40;5.37;;;5.37;;
71183;SDS011;58887;51.980;4.464;2023-03-01T13:00:27;6.18;;;6.18;;
71183;SDS011;58887;51.980;4.464;2023-03-01T13:08:33;6.06;;;6.06;;
71183;SDS011;58887;51.980;4.464;2023-03-01T13:11:05;5.12;;;5.12;;
71183;SDS011;58887;51.980;4.464;2023-03-01T13:13:44;5.68;;;5.68;;
71183;SDS011;58887;51.980;4.464;2023-03-01T13:21:33;5.45;;;5.45;;
71183;SDS011;58887;51.980;4.464;2023-03-01T13:23:58;5.04;;;5.04;;
71183;SDS011;58887;51.980;4.464;2023-03-01T13:26:24;4.34;;;4.34;;
71183;SDS011;58887;51.980;4.464;2023-03-01T13:28:51;4.44;;;4.44;;
71183;SDS011;58887;51.980;4.464;2023-03-01T13:38:55;5.98;;;5.98;;
71183;SDS011;58887;51.980;4.464;2023-03-01T13:49:42;3.64;;;3.64;;
71183;SDS011;58887;51.980;4.464;2023-03-01T13:54:59;4.06;;;4.06;;
71183;SDS011;58887;51.980;4.464;2023-03-01T13:57:38;4.05;;;4.05;;
71183;SDS011;58887;51.980;4.464;2023-03-01T14:00:06;5.01;;;5.01;;
71183;SDS011;58887;51.980;4.464;2023-03-01T14:02:33;10.49;;;10.49;;
71183;SDS011;58887;51.980;4.464;2023-03-01T14:04:59;4.21;;;4.21;;
71183;SDS011;58887;51.980;4.464;2023-03-01T14:07:27;4.42;;;4.42;;
71183;SDS011;58887;51.980;4.464;2023-03-01T14:09:58;4.08;;;4.08;;
71183;SDS011;58887;51.980;4.464;2023-03-01T14:15:27;3.65;;;3.65;;
71183;SDS011;58887;51.980;4.464;2023-03-01T14:18:04;3.72;;;3.72;;
71183;SDS011;58887;51.980;4.464;2023-03-01T14:20:43;3.93;;;3.93;;
71183;SDS011;58887;51.980;4.464;2023-03-01T14:25:57;3.87;;;3.87;;
71183;SDS011;58887;51.980;4.464;2023-03-01T14:30:58;3.71;;;3.71;;
71183;SDS011;58887;51.980;4.464;2023-03-01T14:36:02;3.89;;;3.89;;
71183;SDS011;58887;51.980;4.464;2023-03-01T14:38:38;5.03;;;5.03;;
71183;SDS011;58887;51.980;4.464;2023-03-01T14:41:14;4.77;;;4.77;;
71183;SDS011;58887;51.980;4.464;2023-03-01T14:43:43;4.57;;;4.57;;
71183;SDS011;58887;51.980;4.464;2023-03-01T14:46:19;4.61;;;4.61;;
71183;SDS011;58887;51.980;4.464;2023-03-01T14:48:53;4.00;;;4.00;;
71183;SDS011;58887;51.980;4.464;2023-03-01T14:51:27;4.48;;;4.48;;
71183;SDS011;58887;51.980;4.464;2023-03-01T14:53:55;4.27;;;4.27;;
71183;SDS011;58887;51.980;4.464;2023-03-01T14:59:22;3.77;;;3.77;;
71183;SDS011;58887;51.980;4.464;2023-03-01T15:01:57;3.86;;;3.86;;
71183;SDS011;58887;51.980;4.464;2023-03-01T15:04:29;3.71;;;3.71;;
71183;SDS011;58887;51.980;4.464;2023-03-01T15:06:58;3.89;;;3.89;;
71183;SDS011;58887;51.980;4.464;2023-03-01T15:14:56;3.76;;;3.76;;
71183;SDS011;58887;51.980;4.464;2023-03-01T15:17:41;3.87;;;3.87;;
71183;SDS011;58887;51.980;4.464;2023-03-01T15:20:14;3.53;;;3.53;;
71183;SDS011;58887;51.980;4.464;2023-03-01T15:22:45;3.77;;;3.77;;
71183;SDS011;58887;51.980;4.464;2023-03-01T15:25:19;4.01;;;3.97;;
71183;SDS011;58887;51.980;4.464;2023-03-01T15:27:52;3.68;;;3.68;;
71183;SDS011;58887;51.980;4.464;2023-03-01T15:30:31;3.87;;;3.87;;
71183;SDS011;58887;51.980;4.464;2023-03-01T15:35:54;4.40;;;4.40;;
71183;SDS011;58887;51.980;4.464;2023-03-01T15:38:30;3.62;;;3.62;;
71183;SDS011;58887;51.980;4.464;2023-03-01T15:41:23;4.16;;;4.16;;
71183;SDS011;58887;51.980;4.464;2023-03-01T15:44:14;3.95;;;3.95;;
71183;SDS011;58887;51.980;4.464;2023-03-01T15:46:45;4.06;;;4.06;;
71183;SDS011;58887;51.980;4.464;2023-03-01T15:52:10;4.04;;;4.04;;
71183;SDS011;58887;51.980;4.464;2023-03-01T15:54:54;4.18;;;4.18;;
71183;SDS011;58887;51.980;4.464;2023-03-01T15:57:21;4.48;;;4.48;;
71183;SDS011;58887;51.980;4.464;2023-03-01T15:59:47;19.16;;;19.16;;
71183;SDS011;58887;51.980;4.464;2023-03-01T16:02:12;5.14;;;5.14;;
71183;SDS011;58887;51.980;4.464;2023-03-01T16:04:40;4.67;;;4.67;;
71183;SDS011;58887;51.980;4.464;2023-03-01T16:07:06;5.32;;;5.32;;
71183;SDS011;58887;51.980;4.464;2023-03-01T16:09:32;5.33;;;5.33;;
71183;SDS011;58887;51.980;4.464;2023-03-01T16:11:58;4.43;;;4.43;;
71183;SDS011;58887;51.980;4.464;2023-03-01T16:14:23;4.38;;;4.38;;
71183;SDS011;58887;51.980;4.464;2023-03-01T16:16:49;4.65;;;4.65;;
71183;SDS011;58887;51.980;4.464;2023-03-01T16:19:16;4.71;;;4.71;;
71183;SDS011;58887;51.980;4.464;2023-03-01T16:21:41;5.01;;;5.01;;
71183;SDS011;58887;51.980;4.464;2023-03-01T16:24:16;5.04;;;5.01;;
71183;SDS011;58887;51.980;4.464;2023-03-01T16:26:42;4.57;;;4.57;;
71183;SDS011;58887;51.980;4.464;2023-03-01T16:29:07;4.81;;;4.80;;
71183;SDS011;58887;51.980;4.464;2023-03-01T16:31:35;571.84;;;571.84;;
71183;SDS011;58887;51.980;4.464;2023-03-01T16:34:00;4.89;;;4.89;;
71183;SDS011;58887;51.980;4.464;2023-03-01T16:36:26;4.95;;;4.95;;
71183;SDS011;58887;51.980;4.464;2023-03-01T16:41:34;9.68;;;9.68;;
71183;SDS011;58887;51.980;4.464;2023-03-01T16:44:00;4.98;;;4.98;;
71183;SDS011;58887;51.980;4.464;2023-03-01T16:46:27;5.06;;;5.06;;
71183;SDS011;58887;51.980;4.464;2023-03-01T16:48:55;5.09;;;5.09;;
71183;SDS011;58887;51.980;4.464;2023-03-01T16:51:21;5.09;;;5.09;;
71183;SDS011;58887;51.980;4.464;2023-03-01T16:53:48;5.05;;;5.05;;
71183;SDS011;58887;51.980;4.464;2023-03-01T16:58:45;6.20;;;6.17;;
71183;SDS011;58887;51.980;4.464;2023-03-01T17:01:19;5.21;;;5.21;;
71183;SDS011;58887;51.980;4.464;2023-03-01T17:03:49;5.45;;;5.39;;
71183;SDS011;58887;51.980;4.464;2023-03-01T17:06:19;5.45;;;5.44;;
71183;SDS011;58887;51.980;4.464;2023-03-01T17:11:21;5.08;;;5.08;;
71183;SDS011;58887;51.980;4.464;2023-03-01T17:13:55;5.06;;;5.06;;
71183;SDS011;58887;51.980;4.464;2023-03-01T17:16:27;5.38;;;5.37;;
71183;SDS011;58887;51.980;4.464;2023-03-01T17:19:08;5.47;;;5.47;;
71183;SDS011;58887;51.980;4.464;2023-03-01T17:21:34;6.11;;;6.11;;
71183;SDS011;58887;51.980;4.464;2023-03-01T17:24:08;8.22;;;8.22;;
71183;SDS011;58887;51.980;4.464;2023-03-01T17:26:33;8.92;;;8.92;;
71183;SDS011;58887;51.980;4.464;2023-03-01T17:29:04;9.58;;;9.58;;
71183;SDS011;58887;51.980;4.464;2023-03-01T17:31:31;7.68;;;7.68;;
71183;SDS011;58887;51.980;4.464;2023-03-01T17:34:07;6.66;;;6.66;;
71183;SDS011;58887;51.980;4.464;2023-03-01T17:36:36;6.76;;;6.76;;
71183;SDS011;58887;51.980;4.464;2023-03-01T17:41:38;7.24;;;7.24;;
71183;SDS011;58887;51.980;4.464;2023-03-01T17:44:04;8.09;;;8.09;;
71183;SDS011;58887;51.980;4.464;2023-03-01T17:46:32;9.01;;;9.01;;
71183;SDS011;58887;51.980;4.464;2023-03-01T17:48:57;9.20;;;9.20;;
71183;SDS011;58887;51.980;4.464;2023-03-01T17:51:23;10.54;;;10.54;;